createdAt,value
2023-04-16T00:00:01.308Z,87.7
2023-04-16T00:05:01.519Z,89.7
2023-04-16T00:10:01.333Z,91.3
2023-04-16T00:15:06.365Z,92.2
2023-04-16T00:20:01.261Z,95.7
2023-04-16T00:25:01.383Z,99.0
2023-04-16T00:30:01.290Z,102.3
2023-04-16T00:35:01.345Z,97.7
2023-04-16T00:40:01.383Z,93.9
2023-04-16T00:45:01.409Z,89.3
2023-04-16T00:50:01.349Z,85.4
2023-04-16T01:00:01.393Z,83.1
2023-04-16T01:05:01.553Z,89.3
2023-04-16T01:10:01.358Z,95.3
2023-04-16T01:15:01.474Z,98.8
2023-04-16T01:20:01.670Z,103.0
2023-04-16T01:25:01.409Z,99.9
2023-04-16T01:30:01.278Z,94.5
2023-04-16T01:40:01.485Z,87.9
2023-04-16T01:45:01.469Z,84.9
2023-04-16T01:50:01.368Z,82.2
2023-04-16T01:55:01.552Z,82.7
2023-04-16T02:00:01.371Z,84.6
2023-04-16T02:05:01.410Z,87.8
2023-04-16T02:10:01.347Z,90.8
2023-04-16T02:15:01.407Z,92.3
2023-04-16T02:20:02.397Z,93.6
2023-04-16T02:25:01.464Z,97.9
2023-04-16T02:35:01.468Z,102.2
2023-04-16T02:40:01.306Z,99.7
2023-04-16T02:45:01.419Z,95.0
2023-04-16T02:50:01.257Z,90.8
2023-04-16T02:55:01.399Z,88.4
2023-04-16T03:00:01.440Z,88.6
2023-04-16T03:10:01.386Z,88.7
2023-04-16T03:15:01.324Z,91.7
2023-04-16T03:20:01.356Z,95.8
2023-04-16T03:25:01.478Z,97.3
2023-04-16T03:30:01.351Z,95.8
2023-04-16T03:35:01.530Z,99.3
2023-04-16T03:40:01.355Z,100.6
2023-04-16T03:45:01.471Z,101.6
2023-04-16T03:50:01.336Z,103.2
2023-04-16T03:55:01.474Z,102.8
2023-04-16T04:00:01.311Z,102.7
2023-04-16T04:05:06.529Z,105.4
2023-04-16T04:10:06.332Z,107.9
2023-04-16T04:15:01.716Z,108.6
2023-04-16T04:20:07.279Z,112.2
2023-04-16T04:25:02.418Z,116.2
2023-04-16T04:30:01.377Z,110.9
2023-04-16T04:40:01.522Z,104.2
2023-04-16T04:45:01.429Z,96.8
2023-04-16T04:50:01.378Z,86.8
2023-04-16T04:55:01.456Z,77.8
2023-04-16T05:00:01.354Z,75.5
2023-04-16T05:05:01.649Z,76.2
2023-04-16T05:10:01.354Z,76.9
2023-04-16T05:15:02.510Z,78.7
2023-04-16T05:20:01.494Z,81.0
2023-04-16T05:25:01.464Z,81.1
2023-04-16T05:35:06.466Z,78.6
2023-04-16T05:40:02.387Z,79.4
2023-04-16T05:45:01.546Z,80.6
2023-04-16T05:55:01.657Z,83.2
2023-04-16T06:00:01.330Z,88.2
2023-04-16T06:05:01.459Z,88.7
2023-04-16T06:10:01.312Z,87.4
2023-04-16T06:20:01.312Z,79.6
2023-04-16T06:25:01.413Z,89.3
2023-04-16T06:50:01.509Z,87.4
2023-04-16T06:55:01.420Z,77.2
2023-04-16T07:00:01.340Z,81.2
2023-04-16T07:05:01.465Z,85.4
2023-04-16T07:15:01.426Z,90.6
2023-04-16T07:35:01.802Z,74.0
2023-04-16T07:40:01.394Z,67.5
2023-04-16T07:45:01.470Z,67.0
2023-04-16T07:50:01.387Z,66.5
2023-04-16T07:55:01.539Z,67.1
2023-04-16T08:00:01.782Z,67.9
2023-04-16T08:05:01.548Z,68.9
2023-04-16T08:10:02.466Z,68.6
2023-04-16T08:20:01.721Z,72.4
2023-04-16T08:25:01.574Z,73.6
2023-04-16T08:35:01.476Z,74.6
2023-04-16T08:40:01.461Z,75.4
2023-04-16T08:55:01.568Z,79.9
2023-04-16T09:15:01.684Z,80.8
2023-04-16T09:20:01.451Z,86.1
2023-04-16T09:25:01.480Z,86.5
2023-04-16T09:30:01.437Z,87.0
2023-04-16T09:45:05.865Z,86.0
2023-04-16T09:50:01.750Z,96.7
2023-04-16T09:55:01.844Z,95.8
2023-04-16T10:00:01.672Z,93.9
2023-04-16T10:05:01.893Z,93.8
2023-04-16T10:10:01.799Z,94.7
2023-04-16T10:20:02.195Z,91.0
2023-04-16T10:25:02.562Z,89.9
2023-04-16T10:30:01.714Z,88.1
2023-04-16T10:35:02.321Z,85.6
2023-04-16T10:40:01.787Z,82.6
2023-04-16T10:55:01.619Z,70.8
2023-04-16T11:00:01.379Z,67.8
2023-04-16T11:20:01.895Z,106.2
2023-04-16T11:25:02.364Z,95.0
2023-04-16T11:35:02.051Z,92.1
2023-04-16T11:40:01.916Z,78.1
2023-04-16T11:50:03.013Z,79.0
2023-04-16T12:05:01.589Z,79.8
2023-04-16T12:10:02.509Z,90.4
2023-04-16T12:15:01.482Z,91.5
2023-04-16T12:20:01.359Z,87.9
2023-04-16T12:25:06.985Z,85.0
2023-04-16T12:30:01.411Z,89.2
2023-04-16T12:35:06.441Z,83.5
2023-04-16T12:40:01.411Z,78.9
2023-04-16T12:45:01.928Z,78.8
2023-04-16T12:55:01.446Z,74.6
2023-04-16T13:00:02.436Z,76.0
2023-04-16T13:05:02.122Z,77.1
2023-04-16T13:15:01.501Z,79.6
2023-04-16T13:20:01.334Z,80.3
2023-04-16T13:30:01.400Z,77.5
2023-04-16T13:35:01.552Z,76.4
2023-04-16T13:40:01.399Z,75.4
2023-04-16T13:45:01.624Z,74.8
2023-04-16T13:55:01.508Z,76.8
2023-04-16T14:05:01.464Z,78.2
2023-04-16T14:10:01.397Z,80.4
2023-04-16T14:15:01.547Z,80.9
2023-04-16T14:25:01.441Z,79.8
2023-04-16T14:35:01.492Z,79.0
2023-04-16T14:40:01.389Z,75.3
2023-04-16T14:45:01.442Z,72.5
2023-04-16T14:50:01.412Z,71.1
2023-04-16T14:55:01.487Z,69.8
2023-04-16T15:00:01.456Z,70.8
2023-04-16T15:05:01.574Z,69.6
2023-04-16T15:10:01.348Z,73.7
2023-04-16T15:15:06.392Z,73.5
2023-04-16T15:25:02.481Z,77.2
2023-04-16T15:30:02.404Z,77.6
2023-04-16T15:40:01.364Z,78.2
2023-04-16T15:45:01.772Z,79.7
2023-04-16T15:55:04.548Z,78.5
2023-04-16T16:00:07.591Z,79.1
2023-04-16T16:05:01.410Z,81.3
2023-04-16T16:10:01.936Z,83.9
2023-04-16T16:20:01.465Z,88.8
2023-04-16T16:25:01.413Z,90.5
2023-04-16T16:30:01.454Z,90.8
2023-04-16T16:35:01.377Z,89.9
2023-04-16T16:40:01.368Z,90.5
2023-04-16T16:50:08.327Z,107.2
2023-04-16T17:05:01.601Z,126.9
2023-04-16T17:10:06.688Z,130.5
2023-04-16T17:15:01.403Z,127.2
2023-04-16T17:20:01.381Z,115.6
2023-04-16T17:25:01.559Z,104.8
2023-04-16T17:35:01.411Z,94.0
2023-04-16T17:40:06.370Z,87.9
2023-04-16T17:45:01.411Z,84.2
2023-04-16T17:50:01.483Z,92.7
2023-04-16T18:00:01.561Z,92.7
2023-04-16T18:10:01.387Z,92.0
2023-04-16T18:15:01.440Z,92.8
2023-04-16T18:20:01.397Z,90.2
2023-04-16T18:30:01.431Z,75.5
2023-04-16T18:35:01.468Z,79.0
2023-04-16T18:50:01.335Z,73.2
2023-04-16T18:55:01.386Z,72.7
2023-04-16T19:00:01.536Z,65.5
2023-04-16T19:10:01.325Z,63.0
2023-04-16T19:20:06.343Z,61.3
2023-04-16T19:25:06.481Z,61.0
2023-04-16T19:30:01.324Z,61.5
2023-04-16T19:35:01.449Z,62.0
2023-04-16T19:45:01.418Z,63.5
2023-04-16T19:50:01.414Z,64.5
2023-04-16T19:55:01.450Z,65.2
2023-04-16T20:00:01.265Z,65.4
2023-04-16T20:05:01.516Z,65.0
2023-04-16T20:10:01.453Z,64.7
2023-04-16T20:15:02.490Z,64.2
2023-04-16T20:30:01.470Z,70.2
2023-04-16T20:35:01.454Z,72.1
2023-04-16T20:40:02.274Z,72.0
2023-04-16T20:45:01.465Z,72.4
2023-04-16T20:50:06.419Z,73.6
2023-04-16T20:55:06.378Z,68.7
2023-04-16T21:05:01.445Z,67.2
2023-04-16T21:10:01.358Z,66.9
2023-04-16T21:15:06.439Z,83.5
2023-04-16T21:25:01.474Z,82.0
2023-04-16T21:30:01.445Z,82.8
2023-04-16T21:40:01.403Z,83.5
2023-04-16T21:45:02.545Z,67.8
2023-04-16T21:50:06.377Z,69.6
2023-04-16T21:55:01.448Z,69.4
2023-04-16T22:00:01.658Z,69.1
2023-04-16T22:05:01.446Z,68.8
2023-04-16T22:15:03.582Z,68.1
2023-04-16T22:20:01.310Z,65.4
2023-04-16T22:25:01.467Z,65.8
2023-04-16T22:30:01.345Z,66.3
2023-04-16T22:35:01.827Z,67.2
2023-04-16T22:40:01.446Z,68.6
2023-04-16T22:45:06.467Z,71.5
2023-04-16T22:50:06.421Z,76.1
2023-04-16T22:55:06.476Z,79.4
2023-04-16T23:00:01.480Z,82.4
2023-04-16T23:10:01.384Z,101.2
2023-04-16T23:15:01.417Z,100.5
2023-04-16T23:20:01.288Z,97.2
2023-04-16T23:25:01.336Z,95.6
2023-04-16T23:30:01.263Z,93.4
2023-04-16T23:35:01.337Z,74.6
2023-04-16T23:40:01.264Z,74.5
2023-04-16T23:45:06.396Z,76.2
2023-04-16T23:50:01.274Z,77.4
2023-04-16T23:55:01.454Z,82.6
